Time;durP1;ratioP1;P1;durP2;ratioP2;P2;SDS_P1;SDS_P2;PMS_P1;PMS_P2;Temp;Humidity;BMP_temperature;BMP_pressure;BME280_temperature;BME280_humidity;BME280_pressure;Samples;Min_cycle;Max_cycle;Signal;HPM_P1;HPM_P2
2023/12/06 00:01:11;;;;;;;39.63;23.98;;;6.10;75.90;;;;;;5086662;28;20055;-55
2023/12/06 00:03:38;;;;;;;38.85;23.70;;;6.10;75.90;;;;;;5101715;28;20082;-51
2023/12/06 00:06:10;;;;;;;41.63;25.17;;;6.00;76.00;;;;;;5098637;28;20044;-56
2023/12/06 00:08:39;;;;;;;;;;;6.10;76.10;;;;;;5083735;28;20072;-53
2023/12/06 00:11:11;;;;;;;39.70;23.05;;;6.10;76.10;;;;;;5089875;28;19958;-55
2023/12/06 00:13:38;;;;;;;44.95;26.25;;;6.10;75.90;;;;;;5086929;28;20052;-54
2023/12/06 00:16:05;;;;;;;47.50;26.75;;;6.10;75.90;;;;;;5087164;28;20052;-55
2023/12/06 00:18:32;;;;;;;44.35;26.92;;;6.10;75.90;;;;;;5080412;28;20063;-55
2023/12/06 00:20:59;;;;;;;53.00;29.50;;;6.00;75.90;;;;;;5084729;28;20044;-55
2023/12/06 00:23:26;;;;;;;51.85;28.73;;;6.00;75.90;;;;;;5080441;28;20048;-55
2023/12/06 00:25:53;;;;;;;45.30;28.15;;;6.00;75.90;;;;;;5080854;28;20097;-51
2023/12/06 00:28:24;;;;;;;45.65;27.23;;;6.00;76.00;;;;;;5087178;28;20040;-56
2023/12/06 00:30:54;;;;;;;50.78;28.42;;;6.00;76.00;;;;;;5091334;28;20045;-56
2023/12/06 00:33:21;;;;;;;45.15;27.38;;;6.00;76.00;;;;;;5085194;28;20043;-55
2023/12/06 00:35:50;;;;;;;50.35;28.95;;;6.00;75.90;;;;;;5084354;28;20040;-55
2023/12/06 00:38:17;;;;;;;48.65;28.33;;;6.00;75.90;;;;;;5083417;28;20120;-54
2023/12/06 00:40:44;;;;;;;53.03;30.25;;;6.00;76.00;;;;;;5085876;28;20094;-55
2023/12/06 00:43:10;;;;;;;46.33;28.83;;;6.00;76.00;;;;;;5087620;28;20054;-55
2023/12/06 00:45:37;;;;;;;50.30;29.00;;;6.00;75.90;;;;;;5090627;28;20044;-55
2023/12/06 00:48:06;;;;;;;54.95;31.25;;;6.00;75.90;;;;;;5086180;28;20044;-53
2023/12/06 00:50:35;;;;;;;49.83;28.65;;;6.00;75.90;;;;;;5090551;28;20059;-55
2023/12/06 00:53:02;;;;;;;52.78;29.98;;;6.10;76.00;;;;;;5088642;28;20051;-53
2023/12/06 00:55:32;;;;;;;48.47;28.90;;;6.00;75.80;;;;;;5084502;28;20063;-56
2023/12/06 00:57:58;;;;;;;51.80;29.52;;;6.00;75.80;;;;;;5090870;28;20513;-52
2023/12/06 01:00:25;;;;;;;46.78;28.25;;;6.00;75.80;;;;;;5086478;28;20520;-55
2023/12/06 01:02:52;;;;;;;45.05;28.10;;;6.00;75.70;;;;;;5084546;28;20048;-55
2023/12/06 01:05:18;;;;;;;49.65;29.70;;;6.00;75.70;;;;;;5083864;28;20556;-54
2023/12/06 01:07:45;;;;;;;49.97;29.63;;;6.00;75.70;;;;;;5084707;28;20548;-55
2023/12/06 01:10:17;;;;;;;44.28;28.23;;;6.00;75.60;;;;;;5089506;28;20083;-54
2023/12/06 01:12:43;;;;;;;45.83;28.10;;;6.00;75.60;;;;;;5089364;28;20044;-53
2023/12/06 01:15:13;;;;;;;45.20;26.85;;;6.00;75.60;;;;;;5088365;28;20133;-54
2023/12/06 01:17:43;;;;;;;46.30;28.02;;;5.90;75.40;;;;;;5084427;28;20109;-55
2023/12/06 01:20:10;;;;;;;48.22;30.08;;;5.90;75.50;;;;;;5083524;28;20040;-55
2023/12/06 01:22:37;;;;;;;43.40;28.20;;;6.00;75.60;;;;;;5084545;28;20401;-55
2023/12/06 01:25:06;;;;;;;43.53;27.70;;;5.90;75.60;;;;;;5078413;28;20063;-55
2023/12/06 01:27:35;;;;;;;44.75;28.02;;;5.90;75.70;;;;;;5089213;28;20569;-56
2023/12/06 01:30:04;;;;;;;41.47;26.85;;;5.90;75.70;;;;;;5088094;28;20517;-56
2023/12/06 01:32:41;;;;;;;42.33;26.40;;;5.90;75.70;;;;;;5082852;28;20503;-55
2023/12/06 01:35:08;;;;;;;41.00;26.38;;;5.90;75.60;;;;;;5089053;28;20698;-53
2023/12/06 01:37:35;;;;;;;41.38;26.15;;;5.90;75.60;;;;;;5090112;28;20051;-55
2023/12/06 01:40:04;;;;;;;43.78;27.15;;;5.90;75.60;;;;;;5090621;28;20607;-56
2023/12/06 01:42:34;;;;;;;38.08;27.00;;;5.90;75.60;;;;;;5086135;28;20118;-55
2023/12/06 01:45:03;;;;;;;39.47;25.85;;;5.90;75.60;;;;;;5088088;28;20047;-55
2023/12/06 01:47:34;;;;;;;42.10;28.05;;;5.90;75.60;;;;;;5089253;28;20043;-55
2023/12/06 01:50:04;;;;;;;42.55;26.45;;;5.90;75.60;;;;;;5083766;28;20092;-55
2023/12/06 01:52:35;;;;;;;42.27;26.63;;;5.90;76.30;;;;;;5089081;28;20086;-55
2023/12/06 01:55:05;;;;;;;39.53;24.48;;;5.90;75.80;;;;;;5080378;28;20040;-55
2023/12/06 01:57:41;;;;;;;37.42;25.33;;;5.90;75.90;;;;;;5088359;28;20147;-55
2023/12/06 02:00:11;;;;;;;35.97;24.55;;;5.90;75.80;;;;;;5088398;28;20044;-55
2023/12/06 02:02:38;;;;;;;39.05;26.48;;;6.00;75.80;;;;;;5085988;28;20040;-55
2023/12/06 02:05:07;;;;;;;37.95;26.67;;;5.90;75.80;;;;;;5083050;28;20581;-54
2023/12/06 02:07:35;;;;;;;35.65;24.10;;;5.90;76.00;;;;;;5089530;28;20037;-51
2023/12/06 02:10:03;;;;;;;37.92;25.63;;;6.00;75.80;;;;;;5088705;28;20493;-55
2023/12/06 02:12:30;;;;;;;40.00;26.67;;;5.90;75.60;;;;;;5081711;28;20089;-55
2023/12/06 02:14:59;;;;;;;36.97;25.90;;;5.90;75.70;;;;;;5081138;28;20068;-55
2023/12/06 02:17:27;;;;;;;36.35;24.65;;;5.90;75.70;;;;;;5086143;28;20040;-55
2023/12/06 02:19:54;;;;;;;38.05;25.77;;;5.90;75.70;;;;;;5080093;28;20036;-55
2023/12/06 02:22:23;;;;;;;38.95;25.70;;;5.90;75.90;;;;;;5082070;28;20032;-53
2023/12/06 02:24:54;;;;;;;40.13;27.75;;;5.90;75.90;;;;;;5076251;28;20082;-57
2023/12/06 02:27:21;;;;;;;37.75;25.77;;;5.90;76.00;;;;;;5087780;28;20071;-58
2023/12/06 02:29:51;;;;;;;39.55;25.25;;;5.80;76.00;;;;;;5089477;28;20119;-59
2023/12/06 02:32:20;;;;;;;40.50;25.35;;;5.80;76.20;;;;;;5080761;28;20075;-59
2023/12/06 02:34:48;;;;;;;38.70;25.45;;;5.80;76.20;;;;;;5086268;28;20572;-56
2023/12/06 02:37:24;;;;;;;43.92;27.02;;;5.90;76.20;;;;;;5088954;28;20680;-56
2023/12/06 02:39:54;;;;;;;39.60;26.02;;;5.90;76.20;;;;;;5084927;28;20047;-54
2023/12/06 02:42:24;;;;;;;41.67;27.30;;;5.80;76.00;;;;;;5079720;28;20047;-56
2023/12/06 02:45:01;;;;;;;39.80;25.95;;;5.90;76.10;;;;;;5081741;28;20043;-57
2023/12/06 02:47:31;;;;;;;42.83;27.20;;;5.90;76.10;;;;;;5084296;28;20093;-57
2023/12/06 02:49:58;;;;;;;40.15;26.75;;;5.90;76.10;;;;;;5084540;28;20064;-55
2023/12/06 02:52:25;;;;;;;44.20;27.88;;;5.90;76.10;;;;;;5079186;28;20044;-56
2023/12/06 02:54:54;;;;;;;41.95;26.08;;;5.90;76.20;;;;;;5082062;28;20076;-55
2023/12/06 02:57:21;;;;;;;42.40;25.33;;;5.90;76.20;;;;;;5088270;28;20036;-55
2023/12/06 02:59:50;;;;;;;42.20;27.27;;;5.90;76.20;;;;;;5089175;28;20036;-55
2023/12/06 03:02:20;;;;;;;45.05;27.88;;;5.90;76.20;;;;;;5083011;28;20123;-57
2023/12/06 03:04:46;;;;;;;45.25;27.85;;;5.90;76.20;;;;;;5086264;28;20050;-55
2023/12/06 03:07:16;;;;;;;44.85;28.73;;;5.90;76.30;;;;;;5089312;28;20399;-55
2023/12/06 03:09:42;;;;;;;39.90;26.50;;;6.00;76.30;;;;;;5088700;28;20498;-55
2023/12/06 03:12:09;;;;;;;45.97;27.13;;;6.00;76.40;;;;;;5085089;28;20064;-56
2023/12/06 03:14:37;;;;;;;44.75;26.42;;;6.00;76.40;;;;;;5082604;28;20041;-56
2023/12/06 03:17:11;;;;;;;46.17;27.50;;;6.00;76.40;;;;;;5082039;28;20032;-57
2023/12/06 03:19:40;;;;;;;45.05;27.90;;;6.00;76.40;;;;;;5081144;28;20567;-53
2023/12/06 03:22:08;;;;;;;44.35;26.20;;;6.00;76.40;;;;;;5086315;28;20131;-54
2023/12/06 03:24:36;;;;;;;45.28;27.48;;;6.00;76.40;;;;;;5083010;28;20040;-52
2023/12/06 03:27:03;;;;;;;40.35;27.50;;;6.10;76.50;;;;;;5092470;28;20046;-56
2023/12/06 03:29:31;;;;;;;46.38;27.90;;;6.10;76.40;;;;;;5092532;28;20051;-55
2023/12/06 03:31:57;;;;;;;44.85;27.95;;;6.10;76.40;;;;;;5093154;28;20132;-55
2023/12/06 03:34:24;;;;;;;44.58;28.50;;;6.10;76.40;;;;;;5089489;28;20384;-54
2023/12/06 03:36:51;;;;;;;42.55;27.27;;;6.20;76.40;;;;;;5088642;28;20490;-56
2023/12/06 03:39:17;;;;;;;45.25;27.55;;;6.10;76.30;;;;;;5092305;28;20592;-53
2023/12/06 03:41:44;;;;;;;42.08;26.40;;;6.10;76.30;;;;;;5091452;28;20036;-53
2023/12/06 03:44:11;;;;;;;41.33;25.65;;;6.10;76.30;;;;;;5083757;28;20132;-55
2023/12/06 03:46:38;;;;;;;41.42;25.85;;;6.10;76.30;;;;;;5083714;28;20101;-55
2023/12/06 03:49:04;;;;;;;36.85;24.73;;;6.20;76.40;;;;;;5081633;28;20115;-54
2023/12/06 03:51:31;;;;;;;39.05;25.30;;;6.20;76.30;;;;;;5087276;28;20494;-53
2023/12/06 03:54:00;;;;;;;35.45;24.08;;;6.20;76.30;;;;;;5083057;28;20112;-57
2023/12/06 03:56:28;;;;;;;38.28;25.50;;;6.20;76.40;;;;;;5089274;28;20052;-57
2023/12/06 03:58:55;;;;;;;39.50;25.77;;;6.20;76.40;;;;;;5092311;28;20101;-55
2023/12/06 04:01:21;;;;;;;38.67;24.83;;;6.20;76.30;;;;;;5092161;28;20081;-55
2023/12/06 04:03:48;;;;;;;36.28;24.75;;;6.20;76.40;;;;;;5087955;28;20131;-54
2023/12/06 04:06:17;;;;;;;34.35;23.00;;;6.20;76.30;;;;;;5084899;28;20093;-55
2023/12/06 04:08:44;;;;;;;36.95;23.80;;;6.20;76.40;;;;;;5091234;28;20067;-54
2023/12/06 04:11:15;;;;;;;38.55;25.42;;;6.20;76.40;;;;;;5089736;28;20051;-54
2023/12/06 04:13:43;;;;;;;35.58;24.20;;;6.20;76.90;;;;;;5082208;28;20066;-55
2023/12/06 04:16:10;;;;;;;36.88;23.75;;;6.20;76.30;;;;;;5084075;28;20047;-55
2023/12/06 04:18:39;;;;;;;37.70;24.38;;;6.20;76.30;;;;;;5081507;28;20044;-54
2023/12/06 04:21:06;;;;;;;38.80;24.88;;;6.20;76.40;;;;;;5087255;28;20036;-54
2023/12/06 04:23:33;;;;;;;34.75;23.92;;;6.20;76.50;;;;;;5082241;28;20101;-54
2023/12/06 04:25:59;;;;;;;35.88;24.15;;;6.20;76.40;;;;;;5088401;28;20035;-53
2023/12/06 04:28:29;;;;;;;31.00;21.15;;;6.30;76.50;;;;;;5091987;28;20068;-55
2023/12/06 04:30:55;;;;;;;35.30;24.25;;;6.30;76.50;;;;;;5091617;28;20067;-55
2023/12/06 04:33:22;;;;;;;32.95;24.17;;;6.30;76.50;;;;;;5088728;28;20036;-55
2023/12/06 04:35:49;;;;;;;32.85;23.58;;;6.30;76.40;;;;;;5082900;28;20043;-55
2023/12/06 04:38:18;;;;;;;39.03;26.50;;;6.30;76.40;;;;;;5091996;28;20050;-51
2023/12/06 04:40:45;;;;;;;32.90;22.85;;;6.30;76.30;;;;;;5091996;28;20036;-55
2023/12/06 04:43:14;;;;;;;34.30;22.20;;;6.30;76.30;;;;;;5085793;28;20064;-55
2023/12/06 04:45:40;;;;;;;32.70;23.70;;;6.30;76.30;;;;;;5084705;28;20118;-54
2023/12/06 04:48:07;;;;;;;33.55;24.48;;;6.30;76.30;;;;;;5091801;28;20051;-55
2023/12/06 04:50:34;;;;;;;37.10;24.33;;;6.30;76.40;;;;;;5088861;28;20053;-55
2023/12/06 04:53:00;;;;;;;32.60;24.25;;;6.30;76.40;;;;;;5074852;28;20144;-55
2023/12/06 04:55:27;;;;;;;37.15;23.23;;;6.30;76.50;;;;;;5080351;28;20063;-55
2023/12/06 04:57:56;;;;;;;33.67;23.02;;;6.30;76.40;;;;;;5091006;28;20640;-53
2023/12/06 05:00:23;;;;;;;31.98;23.23;;;6.30;76.40;;;;;;5087574;28;20109;-55
2023/12/06 05:02:51;;;;;;;28.65;21.33;;;6.30;76.50;;;;;;5077530;28;20055;-56
2023/12/06 05:05:25;;;;;;;31.70;23.10;;;6.30;76.50;;;;;;5087731;28;20052;-55
2023/12/06 05:07:51;;;;;;;30.95;22.52;;;6.30;76.50;;;;;;5086221;28;20032;-55
2023/12/06 05:10:20;;;;;;;30.70;21.98;;;6.40;76.50;;;;;;5081573;28;20123;-55
2023/12/06 05:12:49;;;;;;;34.58;23.00;;;6.30;76.50;;;;;;5086415;28;20422;-55
2023/12/06 05:15:21;;;;;;;30.00;22.88;;;6.40;76.50;;;;;;5083110;28;20444;-53
2023/12/06 05:17:50;;;;;;;34.55;24.50;;;6.40;76.50;;;;;;5083773;28;20036;-55
2023/12/06 05:20:16;;;;;;;33.90;23.90;;;6.40;76.50;;;;;;5086197;28;20039;-55
2023/12/06 05:22:43;;;;;;;31.92;23.35;;;6.40;76.50;;;;;;5084325;28;20036;-55
2023/12/06 05:25:10;;;;;;;29.83;21.35;;;6.40;76.60;;;;;;5081970;28;20499;-55
2023/12/06 05:27:37;;;;;;;30.17;22.13;;;6.40;76.70;;;;;;5084961;28;20123;-55
2023/12/06 05:30:04;;;;;;;30.73;21.85;;;6.40;76.70;;;;;;5085588;28;20575;-55
2023/12/06 05:32:30;;;;;;;28.67;21.73;;;6.40;76.60;;;;;;5080121;28;20036;-57
2023/12/06 05:34:57;;;;;;;29.95;20.55;;;6.40;76.60;;;;;;5085333;28;20135;-58
2023/12/06 05:37:24;;;;;;;29.70;21.42;;;6.40;76.70;;;;;;5085021;28;20043;-57
2023/12/06 05:39:53;;;;;;;28.92;21.70;;;6.40;76.70;;;;;;5084740;28;20093;-56
2023/12/06 05:42:23;;;;;;;30.23;21.55;;;6.50;76.70;;;;;;5085742;28;20040;-55
2023/12/06 05:44:49;;;;;;;27.83;20.23;;;6.40;76.70;;;;;;5087634;28;20051;-56
2023/12/06 05:47:16;;;;;;;25.77;20.60;;;6.50;76.70;;;;;;5089359;28;20044;-54
2023/12/06 05:49:43;;;;;;;28.23;21.23;;;6.50;76.70;;;;;;5083492;28;20040;-57
2023/12/06 05:52:09;;;;;;;24.75;20.00;;;6.40;77.30;;;;;;5079186;28;20059;-55
2023/12/06 05:54:36;;;;;;;27.45;19.50;;;6.40;76.60;;;;;;5071824;28;20049;-53
2023/12/06 05:57:03;;;;;;;25.02;19.65;;;6.50;76.70;;;;;;5086692;28;20472;-56
2023/12/06 05:59:30;;;;;;;27.38;20.77;;;6.40;76.60;;;;;;5080652;28;20730;-61
2023/12/06 06:01:57;;;;;;;25.25;18.38;;;6.50;76.70;;;;;;5087361;28;20640;-59
2023/12/06 06:04:24;;;;;;;25.25;19.00;;;6.50;76.70;;;;;;5081959;28;20093;-56
2023/12/06 06:06:51;;;;;;;25.75;19.33;;;6.50;76.70;;;;;;5083468;28;20089;-59
2023/12/06 06:09:20;;;;;;;26.48;19.33;;;6.50;76.70;;;;;;5087785;28;20051;-57
2023/12/06 06:11:47;;;;;;;24.88;18.40;;;6.50;76.70;;;;;;5084043;28;20135;-58
2023/12/06 06:14:14;;;;;;;25.35;19.17;;;6.50;76.60;;;;;;5080513;28;20044;-58
2023/12/06 06:16:41;;;;;;;24.90;18.20;;;6.50;76.60;;;;;;5082034;28;20569;-57
2023/12/06 06:19:07;;;;;;;22.65;18.38;;;6.50;76.70;;;;;;5080863;28;20806;-56
2023/12/06 06:21:34;;;;;;;25.83;19.00;;;6.50;76.70;;;;;;5078984;28;20039;-56
2023/12/06 06:24:01;;;;;;;23.15;17.95;;;6.50;76.80;;;;;;5077488;28;20123;-58
2023/12/06 06:26:27;;;;;;;23.33;18.90;;;6.60;76.80;;;;;;5083073;28;20051;-55
2023/12/06 06:28:55;;;;;;;24.65;18.90;;;6.50;76.70;;;;;;5087227;28;20614;-58
2023/12/06 06:31:21;;;;;;;26.35;20.55;;;6.60;76.80;;;;;;5076936;28;20118;-57
2023/12/06 06:33:48;;;;;;;24.90;19.38;;;6.60;76.90;;;;;;5081890;28;20040;-56
2023/12/06 06:36:15;;;;;;;24.85;17.65;;;6.60;76.90;;;;;;5080059;28;20074;-56
2023/12/06 06:38:42;;;;;;;23.92;18.23;;;6.60;76.90;;;;;;5087106;28;20093;-57
2023/12/06 06:41:09;;;;;;;23.77;17.98;;;6.60;76.90;;;;;;5080244;28;20043;-57
2023/12/06 06:43:36;;;;;;;25.85;18.52;;;6.60;76.90;;;;;;5080449;28;20391;-57
2023/12/06 06:46:03;;;;;;;25.48;20.13;;;6.60;76.80;;;;;;5083262;28;20065;-58
2023/12/06 06:48:31;;;;;;;24.30;17.75;;;6.60;76.80;;;;;;5087488;28;20053;-55
2023/12/06 06:50:58;;;;;;;24.45;19.80;;;6.60;76.90;;;;;;5082315;28;20051;-57
2023/12/06 06:53:25;;;;;;;22.67;17.23;;;6.70;77.00;;;;;;5074951;28;20044;-55
2023/12/06 06:55:53;;;;;;;23.60;17.95;;;6.70;77.00;;;;;;5082702;28;20302;-54
2023/12/06 06:58:19;;;;;;;23.13;18.25;;;6.70;77.00;;;;;;5086549;28;20051;-57
2023/12/06 07:00:46;;;;;;;25.85;19.30;;;6.70;77.10;;;;;;5090883;28;20036;-58
2023/12/06 07:03:14;;;;;;;26.73;18.90;;;6.70;77.10;;;;;;5082171;28;20048;-54
2023/12/06 07:05:40;;;;;;;26.60;19.60;;;6.70;77.10;;;;;;5082234;28;20052;-55
2023/12/06 07:08:07;;;;;;;24.38;19.05;;;6.70;77.10;;;;;;5082663;28;20169;-55
2023/12/06 07:10:34;;;;;;;27.52;19.27;;;6.70;77.10;;;;;;5091679;28;20044;-53
2023/12/06 07:13:01;;;;;;;23.80;18.20;;;6.80;77.20;;;;;;5084165;28;20051;-56
2023/12/06 07:15:27;;;;;;;25.20;18.65;;;6.80;77.20;;;;;;5083110;28;21307;-55
2023/12/06 07:17:55;;;;;;;26.45;18.80;;;6.80;77.30;;;;;;5085606;28;20052;-56
2023/12/06 07:20:22;;;;;;;22.48;17.08;;;6.80;77.30;;;;;;5086127;28;20115;-53
2023/12/06 07:23:03;;;;;;;24.17;18.13;;;6.80;77.30;;;;;;5082277;28;20033;-54
2023/12/06 07:25:30;;;;;;;23.55;18.27;;;6.80;77.30;;;;;;5080903;28;20133;-55
2023/12/06 07:27:57;;;;;;;24.00;17.33;;;6.90;77.30;;;;;;5089772;28;20567;-55
2023/12/06 07:30:24;;;;;;;25.60;19.42;;;6.90;77.40;;;;;;5093157;28;20082;-55
2023/12/06 07:32:51;;;;;;;21.17;17.63;;;6.90;77.40;;;;;;5084538;28;20082;-54
2023/12/06 07:35:21;;;;;;;23.80;18.08;;;6.90;77.40;;;;;;5093189;28;20047;-54
2023/12/06 07:37:49;;;;;;;25.15;18.80;;;6.90;77.50;;;;;;5093345;28;20459;-53
2023/12/06 07:40:15;;;;;;;25.95;18.25;;;6.90;77.50;;;;;;5093213;28;20040;-53
2023/12/06 07:42:42;;;;;;;22.95;17.88;;;7.00;77.50;;;;;;5083692;28;20041;-56
2023/12/06 07:45:11;;;;;;;24.13;18.80;;;7.00;77.50;;;;;;5091203;28;20091;-53
2023/12/06 07:47:41;;;;;;;21.70;17.20;;;7.00;78.10;;;;;;5092112;28;20452;-54
2023/12/06 07:50:09;;;;;;;26.08;19.63;;;7.00;77.50;;;;;;5091621;28;20093;-54
2023/12/06 07:52:36;;;;;;;21.63;17.17;;;7.00;77.50;;;;;;5083737;28;20471;-56
2023/12/06 07:55:06;;;;;;;25.88;18.85;;;7.00;77.50;;;;;;5083681;28;20482;-56
2023/12/06 07:57:33;;;;;;;24.90;18.85;;;7.10;77.60;;;;;;5091650;28;20466;-53
2023/12/06 08:00:00;;;;;;;25.70;19.50;;;7.10;77.50;;;;;;5092219;28;20040;-55
2023/12/06 08:02:27;;;;;;;27.83;19.45;;;7.10;77.50;;;;;;5089502;28;20114;-55
2023/12/06 08:04:54;;;;;;;26.88;18.48;;;7.10;77.50;;;;;;5082202;28;20877;-54
2023/12/06 08:07:22;;;;;;;25.02;18.08;;;7.10;77.50;;;;;;5088714;28;20043;-56
2023/12/06 08:09:52;;;;;;;24.17;18.60;;;7.10;77.50;;;;;;5084673;28;20139;-57
2023/12/06 08:12:19;;;;;;;27.83;18.08;;;7.10;77.50;;;;;;5083586;28;20044;-55
2023/12/06 08:14:45;;;;;;;25.48;17.83;;;7.10;77.50;;;;;;5079232;28;20060;-55
2023/12/06 08:17:14;;;;;;;24.42;18.30;;;7.20;77.60;;;;;;5081477;28;20090;-53
2023/12/06 08:19:40;;;;;;;30.25;19.10;;;7.20;77.60;;;;;;5092671;28;20032;-53
2023/12/06 08:22:07;;;;;;;25.55;18.75;;;7.20;77.60;;;;;;5092048;28;20040;-56
2023/12/06 08:24:33;;;;;;;23.98;18.35;;;7.20;77.60;;;;;;5087629;28;20501;-56
2023/12/06 08:27:00;;;;;;;27.08;19.77;;;7.20;77.50;;;;;;5089998;28;20032;-54
2023/12/06 08:29:27;;;;;;;22.02;18.02;;;7.20;77.50;;;;;;5090343;28;20055;-55
2023/12/06 08:31:54;;;;;;;25.90;18.65;;;7.20;77.50;;;;;;5091494;28;20052;-53
2023/12/06 08:34:21;;;;;;;22.90;17.88;;;7.20;77.50;;;;;;5092038;28;20040;-57
2023/12/06 08:36:48;;;;;;;24.83;17.85;;;7.30;77.60;;;;;;5083476;28;20044;-57
2023/12/06 08:39:15;;;;;;;23.80;17.98;;;7.20;77.50;;;;;;5089386;28;20072;-56
2023/12/06 08:41:42;;;;;;;22.20;17.23;;;7.30;77.50;;;;;;5083813;28;20105;-57
2023/12/06 08:44:08;;;;;;;27.20;18.60;;;7.30;77.60;;;;;;5087883;28;20044;-55
2023/12/06 08:46:35;;;;;;;26.35;18.80;;;7.30;77.60;;;;;;5091315;28;20086;-56
2023/12/06 08:49:03;;;;;;;26.42;18.30;;;7.30;77.60;;;;;;5090890;28;20042;-57
2023/12/06 08:51:30;;;;;;;23.17;16.83;;;7.30;77.60;;;;;;5087651;28;20101;-53
2023/12/06 08:53:57;;;;;;;25.20;17.40;;;7.40;77.60;;;;;;5088502;28;20075;-58
2023/12/06 08:56:24;;;;;;;22.02;17.17;;;7.40;77.60;;;;;;5088785;28;20464;-57
2023/12/06 08:58:50;;;;;;;25.13;18.45;;;7.40;77.60;;;;;;5087247;28;20060;-57
2023/12/06 09:01:17;;;;;;;23.17;17.23;;;7.40;77.60;;;;;;5091337;28;20036;-54
2023/12/06 09:03:44;;;;;;;21.05;17.00;;;7.40;77.50;;;;;;5088057;28;20050;-54
2023/12/06 09:06:13;;;;;;;26.25;18.20;;;7.50;77.50;;;;;;5070974;28;20141;-53
2023/12/06 09:08:40;;;;;;;24.63;17.77;;;7.50;77.50;;;;;;5088973;28;20066;-55
2023/12/06 09:11:07;;;;;;;23.60;17.30;;;7.50;77.50;;;;;;5086528;28;20552;-56
2023/12/06 09:13:34;;;;;;;24.92;17.63;;;7.50;77.40;;;;;;5087250;28;20044;-56
2023/12/06 09:16:03;;;;;;;26.15;18.25;;;7.60;77.60;;;;;;5085784;28;20036;-57
2023/12/06 09:18:30;;;;;;;23.00;17.77;;;7.60;77.50;;;;;;5088057;28;20048;-57
2023/12/06 09:20:57;;;;;;;21.67;16.13;;;7.60;77.60;;;;;;5089606;28;20093;-55
2023/12/06 09:23:24;;;;;;;23.88;17.10;;;7.60;77.60;;;;;;5087824;28;20070;-57
2023/12/06 09:25:51;;;;;;;26.95;16.70;;;7.70;77.50;;;;;;5086360;28;20097;-56
2023/12/06 09:28:18;;;;;;;24.13;17.75;;;7.70;77.40;;;;;;5090902;28;20047;-56
2023/12/06 09:30:44;;;;;;;25.35;17.60;;;7.70;77.30;;;;;;5089754;28;20047;-56
2023/12/06 09:33:11;;;;;;;23.00;17.38;;;7.80;77.40;;;;;;5083964;28;20051;-56
2023/12/06 09:35:40;;;;;;;19.83;16.02;;;7.80;77.40;;;;;;5082311;28;20093;-54
2023/12/06 09:38:08;;;;;;;20.70;15.65;;;7.80;77.20;;;;;;5090855;28;20040;-53
2023/12/06 09:40:35;;;;;;;23.63;16.13;;;7.80;77.20;;;;;;5090570;28;20046;-54
2023/12/06 09:43:02;;;;;;;21.33;16.20;;;7.90;77.10;;;;;;5086373;28;20071;-56
2023/12/06 09:45:30;;;;;;;21.58;16.35;;;7.90;77.00;;;;;;5082566;28;20067;-56
2023/12/06 09:47:57;;;;;;;19.80;16.48;;;7.90;76.90;;;;;;5090351;28;20040;-53
2023/12/06 09:50:25;;;;;;;19.13;16.42;;;8.00;76.90;;;;;;5090034;28;20797;-55
2023/12/06 09:52:53;;;;;;;23.50;15.98;;;8.00;76.90;;;;;;5086073;28;20056;-56
2023/12/06 09:55:24;;;;;;;25.27;17.60;;;8.00;76.90;;;;;;5081019;28;20067;-56
2023/12/06 09:57:52;;;;;;;20.50;15.93;;;8.10;76.80;;;;;;5089530;28;20055;-54
2023/12/06 10:00:19;;;;;;;24.38;17.60;;;8.10;76.70;;;;;;5090601;28;20044;-55
2023/12/06 10:02:54;;;;;;;22.58;16.20;;;8.10;76.50;;;;;;5084081;28;20032;-54
2023/12/06 10:05:21;;;;;;;21.52;15.77;;;8.20;76.50;;;;;;5088009;28;20505;-55
2023/12/06 10:07:48;;;;;;;22.50;16.20;;;8.20;76.50;;;;;;5088971;28;20105;-56
2023/12/06 10:10:17;;;;;;;21.70;16.50;;;8.20;76.50;;;;;;5086128;28;20456;-57
2023/12/06 10:12:48;;;;;;;23.33;16.25;;;8.20;76.50;;;;;;5085155;28;20156;-55
2023/12/06 10:15:16;;;;;;;21.02;16.45;;;8.30;76.40;;;;;;5080758;28;20048;-56
2023/12/06 10:17:44;;;;;;;22.52;16.40;;;8.30;76.40;;;;;;5080669;28;20093;-53
2023/12/06 10:20:12;;;;;;;23.35;17.35;;;8.30;76.40;;;;;;5080395;28;20122;-53
2023/12/06 10:22:39;;;;;;;21.00;15.63;;;8.30;76.30;;;;;;5080515;28;20036;-56
2023/12/06 10:25:07;;;;;;;23.40;16.38;;;8.40;76.30;;;;;;5081905;28;20046;-55
2023/12/06 10:27:35;;;;;;;20.40;15.52;;;8.40;76.30;;;;;;5082750;28;20082;-57
2023/12/06 10:30:06;;;;;;;24.52;15.30;;;8.40;76.30;;;;;;5078355;28;20089;-56
2023/12/06 10:32:35;;;;;;;22.02;15.88;;;8.50;76.10;;;;;;5080866;28;20611;-57
2023/12/06 10:35:05;;;;;;;20.98;15.70;;;8.50;76.20;;;;;;5083285;28;20115;-57
2023/12/06 10:37:32;;;;;;;19.90;15.15;;;8.50;76.20;;;;;;5086991;28;20048;-57
2023/12/06 10:40:09;;;;;;;23.65;15.40;;;8.60;76.10;;;;;;5088164;28;20032;-57
2023/12/06 10:42:38;;;;;;;20.13;16.20;;;8.60;76.00;;;;;;5087047;28;20436;-57
2023/12/06 10:45:07;;;;;;;20.90;15.20;;;8.60;76.00;;;;;;5086975;28;20036;-54
2023/12/06 10:47:34;;;;;;;21.70;15.80;;;8.70;76.00;;;;;;5102154;28;20048;-56
2023/12/06 10:50:05;;;;;;;20.40;14.23;;;8.80;75.90;;;;;;5089988;28;20090;-53
2023/12/06 10:52:32;;;;;;;20.48;15.40;;;8.80;75.60;;;;;;5082714;28;20052;-54
2023/12/06 10:55:01;;;;;;;24.60;15.77;;;8.90;75.20;;;;;;5082231;28;20040;-56
2023/12/06 10:57:31;;;;;;;21.73;15.55;;;8.80;74.70;;;;;;5088062;28;20167;-53
2023/12/06 11:00:00;;;;;;;20.38;14.60;;;8.80;74.40;;;;;;5090053;28;20071;-55
2023/12/06 11:02:29;;;;;;;19.85;15.30;;;8.80;74.30;;;;;;5089212;28;20039;-52
2023/12/06 11:05:03;;;;;;;19.55;15.10;;;8.80;74.20;;;;;;5081609;28;20349;-55
2023/12/06 11:08:01;;;;;;;20.52;15.95;;;8.70;74.30;;;;;;5087747;28;20044;-54
2023/12/06 11:10:57;;;;;;;23.35;16.98;;;8.70;74.50;;;;;;5074671;28;20090;-56
2023/12/06 11:13:49;;;;;;;23.52;15.82;;;8.70;74.70;;;;;;5082355;28;20709;-56
2023/12/06 11:16:43;;;;;;;22.85;15.55;;;8.60;74.70;;;;;;5081856;28;20040;-57
2023/12/06 11:19:12;;;;;;;21.00;14.88;;;8.60;74.80;;;;;;5083677;28;20398;-57
2023/12/06 11:21:39;;;;;;;23.65;15.25;;;8.50;74.90;;;;;;5087341;28;20105;-54
2023/12/06 11:24:13;;;;;;;18.80;15.68;;;8.50;74.80;;;;;;5082698;28;20042;-57
2023/12/06 11:26:41;;;;;;;18.27;15.05;;;8.50;74.70;;;;;;5085505;28;20097;-56
2023/12/06 11:29:08;;;;;;;20.73;14.25;;;8.50;74.70;;;;;;5087260;28;20055;-55
2023/12/06 11:31:37;;;;;;;19.80;14.48;;;8.50;74.70;;;;;;5085606;28;20579;-57
2023/12/06 11:34:09;;;;;;;17.70;14.02;;;8.50;74.60;;;;;;5081955;28;20071;-57
2023/12/06 11:36:37;;;;;;;21.83;14.95;;;8.50;74.50;;;;;;5079295;28;20032;-57
2023/12/06 11:39:16;;;;;;;18.38;13.85;;;8.50;74.60;;;;;;5083234;28;20050;-56
2023/12/06 11:41:51;;;;;;;20.83;15.02;;;8.50;74.50;;;;;;5082051;28;20107;-57
2023/12/06 11:44:20;;;;;;;20.73;14.82;;;8.50;74.50;;;;;;5083409;28;20116;-57
2023/12/06 11:46:53;;;;;;;20.80;14.38;;;8.60;74.50;;;;;;5085657;28;20044;-57
2023/12/06 11:49:25;;;;;;;19.38;15.27;;;8.60;74.50;;;;;;5083635;28;20109;-57
2023/12/06 11:52:02;;;;;;;21.17;14.38;;;8.60;74.40;;;;;;5089925;28;20048;-56
2023/12/06 11:54:30;;;;;;;21.25;14.57;;;8.60;73.90;;;;;;5083844;28;20094;-57
2023/12/06 11:57:08;;;;;;;18.85;14.57;;;8.70;74.30;;;;;;5088161;28;20048;-57
2023/12/06 11:59:34;;;;;;;21.60;13.45;;;8.70;74.00;;;;;;5086890;28;20029;-58
2023/12/06 12:02:01;;;;;;;17.10;12.60;;;8.70;74.30;;;;;;5086152;28;20056;-58
2023/12/06 12:04:30;;;;;;;17.75;13.75;;;8.80;74.50;;;;;;5088199;28;20398;-57
2023/12/06 12:07:01;;;;;;;20.95;13.75;;;8.90;74.40;;;;;;5086309;28;20448;-55
2023/12/06 12:09:31;;;;;;;18.88;13.70;;;9.00;74.60;;;;;;5088011;28;20469;-56
2023/12/06 12:11:58;;;;;;;22.38;14.15;;;9.10;74.60;;;;;;5090347;28;20040;-57
2023/12/06 12:14:35;;;;;;;18.83;13.40;;;9.20;74.30;;;;;;5090745;28;20514;-57
2023/12/06 12:17:04;;;;;;;17.60;12.35;;;9.30;73.60;;;;;;5089492;28;20398;-57
2023/12/06 12:19:31;;;;;;;16.90;13.45;;;9.40;73.40;;;;;;5088686;28;20123;-56
2023/12/06 12:22:02;;;;;;;18.60;14.30;;;9.40;73.10;;;;;;5086303;28;20105;-57
2023/12/06 12:24:29;;;;;;;18.17;13.65;;;9.50;72.80;;;;;;5084104;28;20050;-56
2023/12/06 12:26:56;;;;;;;19.10;12.95;;;9.50;72.80;;;;;;5084260;28;20576;-57
2023/12/06 12:29:23;;;;;;;15.95;12.77;;;9.60;72.60;;;;;;5088576;28;20108;-56
2023/12/06 12:31:51;;;;;;;14.13;11.52;;;9.60;72.40;;;;;;5089174;28;20044;-56
2023/12/06 12:34:18;;;;;;;15.82;11.48;;;9.70;72.10;;;;;;5086963;28;20112;-57
2023/12/06 12:36:48;;;;;;;12.80;10.25;;;9.70;71.60;;;;;;5085865;28;20044;-56
2023/12/06 12:39:15;;;;;;;13.13;9.70;;;9.80;71.50;;;;;;5090938;28;20059;-55
2023/12/06 12:41:42;;;;;;;13.88;10.23;;;9.80;71.80;;;;;;5089532;28;20043;-56
2023/12/06 12:44:09;;;;;;;11.88;9.30;;;9.80;70.80;;;;;;5084077;28;20043;-57